Aeroporto :
LOGIN :

Iscrizione | Disclaimer

   EN    FR    IT 

 










Sommario :    VFR   VFR Marginale   IFR   IFR Intensivo   IFR Molto Intensivo
Visibilità : 
Base nubi : 
>= 8 km
>= 3000ft
5 / 8 km
1000 / 3000 ft
1500m / 5 km
500 / 1000 ft
800 / 1500m
200 / 500 ft
< 800m
< 200 ft
Simboli :   Temporali  Nebbia  Neve Forte  Precipitazioni Forti  Vento > 20 kt
SIGMETs :   Varie  Temporali  Ghiacco  Turbolenza  Onda orograficha  Ceneri Vulcaniche






- Altitudine del aeroporto : 1027 ft
- Codice IATA : GEV


ESNG - Gällivare

ULTIMO METAR :
  • 150420Z AUTO 09007KT 1600 -SN VV009 M02/M02 Q0996

METARs OBSOLETI :
  • 150350Z AUTO 09007KT 0900 R30/P1500N SN VV005 M02/M02 Q0996
  • 150320Z AUTO 09006KT 1100 R30/P1500N -SN VV006 M02/M02 Q0997
  • 150250Z AUTO 09007KT 1800 -SN VV008 M02/M02 Q0997
  • 150220Z AUTO 09007KT 1600 -SN VV009 M02/M02 Q0997
  • 150150Z AUTO 09008KT 1700 -SN VV009 M02/M02 Q0997

Previsioni scadute.



MetMap, La meteo Aeronautica in un colpo d'occhio ! - Copyright ORBIFLY Dicembre 2007 - Disclaimer

ORBIFLY MET'MAP TEAM :

Programmazione e sviluppo : Alexandra Zaïnal
Concezione : Baudouin d'Aumeries
Aiuto per la programmazione : Marc-Olivier Méhu
Supporto tecnico e logistico : Manuel Goepfert
Aiuto per la traduzione : Arnaldo La Scala

Contatto : metmap@orbifly.com




FONTI E CREDITI :

   NOAA